createdAt,value
2019-01-20T00:03:13.372Z,7.25
2019-01-20T00:05:41.255Z,7.20
2019-01-20T00:08:09.171Z,7.62
2019-01-20T00:10:37.267Z,6.85
2019-01-20T00:16:12.699Z,7.53
2019-01-20T00:18:40.635Z,7.47
2019-01-20T00:21:08.495Z,6.80
2019-01-20T00:23:36.392Z,7.55
2019-01-20T00:26:04.397Z,7.35
2019-01-20T00:28:32.272Z,6.87
2019-01-20T00:31:00.245Z,5.83
2019-01-20T00:33:28.603Z,6.75
2019-01-20T00:35:56.438Z,6.28
2019-01-20T00:38:24.348Z,5.80
2019-01-20T00:40:52.227Z,7.60
2019-01-20T00:43:20.436Z,9.68
2019-01-20T00:45:48.314Z,8.08
2019-01-20T00:48:16.218Z,8.43
2019-01-20T00:50:44.082Z,7.55
2019-01-20T00:53:11.982Z,6.22
2019-01-20T00:55:40.121Z,7.55
2019-01-20T00:58:08.090Z,6.42
2019-01-20T01:03:47.519Z,6.75
2019-01-20T01:09:15.804Z,7.00
2019-01-20T01:11:43.810Z,6.58
2019-01-20T01:14:12.085Z,7.03
2019-01-20T01:19:28.974Z,5.45
2019-01-20T01:21:57.111Z,7.10
2019-01-20T01:24:25.016Z,6.42
2019-01-20T01:27:11.846Z,5.78
2019-01-20T01:29:39.764Z,5.92
2019-01-20T01:32:07.684Z,6.35
2019-01-20T01:34:35.621Z,5.45
2019-01-20T01:37:03.915Z,5.75
2019-01-20T01:39:32.110Z,5.30
2019-01-20T01:41:59.981Z,6.33
2019-01-20T01:44:39.958Z,6.28
2019-01-20T01:46:59.622Z,6.22
2019-01-20T01:49:27.579Z,6.65
2019-01-20T01:51:55.845Z,6.05
2019-01-20T01:54:23.729Z,6.37
2019-01-20T01:56:51.701Z,5.67
2019-01-20T02:02:27.542Z,6.30
2019-01-20T02:04:55.810Z,6.72
2019-01-20T02:07:23.705Z,6.42
2019-01-20T02:09:51.848Z,6.80
2019-01-20T02:12:20.090Z,6.58
2019-01-20T02:14:50.270Z,6.42
2019-01-20T02:19:53.048Z,5.87
2019-01-20T02:22:22.952Z,5.42
2019-01-20T02:24:50.957Z,6.40
2019-01-20T02:27:19.562Z,6.75
2019-01-20T02:29:47.617Z,6.87
2019-01-20T02:32:15.637Z,6.00
2019-01-20T02:34:43.841Z,5.50
2019-01-20T02:37:11.772Z,5.35
2019-01-20T02:39:39.679Z,5.37
2019-01-20T02:42:07.903Z,5.45
2019-01-20T02:44:36.607Z,5.00
2019-01-20T02:47:04.594Z,6.00
2019-01-20T02:49:32.487Z,4.87
2019-01-20T02:52:00.366Z,4.85
2019-01-20T02:54:28.233Z,5.37
2019-01-20T02:59:37.839Z,5.42
2019-01-20T03:02:06.443Z,4.55
2019-01-20T03:04:36.462Z,4.40
2019-01-20T03:07:24.425Z,5.00
2019-01-20T03:09:55.018Z,5.62
2019-01-20T03:12:22.969Z,5.53
2019-01-20T03:14:51.082Z,5.15
2019-01-20T03:17:19.431Z,5.10
2019-01-20T03:19:47.355Z,4.58
2019-01-20T03:22:15.579Z,5.15
2019-01-20T03:24:43.487Z,4.62
2019-01-20T03:27:11.720Z,4.70
2019-01-20T03:29:40.030Z,4.72
2019-01-20T03:32:07.991Z,6.20
2019-01-20T03:43:13.878Z,5.10
2019-01-20T03:48:52.442Z,5.92
2019-01-20T03:51:41.002Z,5.60
2019-01-20T03:54:27.905Z,4.87
2019-01-20T03:56:57.436Z,5.20
2019-01-20T04:08:15.643Z,4.75
2019-01-20T04:10:43.879Z,5.67
2019-01-20T04:13:31.892Z,5.80
2019-01-20T04:15:59.797Z,5.75
2019-01-20T04:18:30.192Z,5.12
2019-01-20T04:21:18.563Z,4.85
2019-01-20T04:23:50.109Z,5.60
2019-01-20T04:26:18.910Z,4.78
2019-01-20T04:31:55.530Z,5.33
2019-01-20T04:37:14.510Z,5.05
2019-01-20T04:39:43.206Z,5.60
2019-01-20T04:42:11.987Z,5.72
2019-01-20T04:44:40.381Z,5.83
2019-01-20T04:47:13.833Z,4.92
2019-01-20T04:49:46.580Z,5.00
2019-01-20T04:52:14.514Z,5.50
2019-01-20T04:54:45.005Z,4.55
2019-01-20T04:59:51.126Z,6.08
2019-01-20T05:10:43.438Z,5.22
2019-01-20T05:13:11.438Z,4.78
2019-01-20T05:16:21.889Z,5.37
2019-01-20T05:18:29.011Z,5.28
2019-01-20T05:23:46.118Z,5.17
2019-01-20T05:26:14.333Z,4.97
2019-01-20T05:28:42.309Z,5.72
2019-01-20T05:31:10.211Z,5.25
2019-01-20T05:39:10.677Z,6.85
2019-01-20T05:41:38.917Z,5.00
2019-01-20T05:44:07.805Z,5.45
2019-01-20T05:46:37.455Z,5.33
2019-01-20T05:54:45.176Z,5.33
2019-01-20T05:56:47.704Z,5.87
2019-01-20T05:59:20.019Z,5.30
2019-01-20T06:07:29.773Z,4.95
2019-01-20T06:10:00.340Z,4.97
2019-01-20T06:12:28.595Z,4.42
2019-01-20T06:14:56.898Z,5.10
2019-01-20T06:23:07.936Z,5.50
2019-01-20T06:25:36.155Z,6.28
2019-01-20T06:28:04.446Z,5.12
2019-01-20T06:30:33.822Z,5.67
2019-01-20T06:33:19.407Z,5.45
2019-01-20T06:35:36.034Z,6.10
2019-01-20T06:38:06.903Z,5.72
2019-01-20T06:40:35.282Z,4.72
2019-01-20T06:43:04.031Z,5.85
2019-01-20T06:45:31.910Z,5.03
2019-01-20T06:47:59.806Z,5.20
2019-01-20T06:50:28.511Z,4.80
2019-01-20T06:52:56.841Z,5.72
2019-01-20T06:58:02.076Z,5.35
2019-01-20T07:00:30.116Z,5.50
2019-01-20T07:02:58.739Z,5.83
2019-01-20T07:05:26.749Z,6.25
2019-01-20T07:07:54.737Z,5.42
2019-01-20T07:10:23.098Z,5.97
2019-01-20T07:13:11.350Z,6.40
2019-01-20T07:15:40.049Z,5.80
2019-01-20T07:21:20.202Z,5.70
2019-01-20T07:26:56.005Z,6.37
2019-01-20T07:32:46.146Z,6.10
2019-01-20T07:38:22.140Z,6.12
2019-01-20T07:40:50.158Z,5.67
2019-01-20T07:49:15.940Z,4.83
2019-01-20T07:52:03.157Z,5.70
2019-01-20T07:54:31.410Z,5.47
2019-01-20T07:57:13.996Z,5.75
2019-01-20T07:59:30.997Z,6.72
2019-01-20T08:02:01.725Z,6.10
2019-01-20T08:04:29.743Z,5.70
2019-01-20T08:07:00.027Z,6.92
2019-01-20T08:09:28.318Z,6.28
2019-01-20T08:12:00.554Z,6.47
2019-01-20T08:17:04.296Z,6.60
2019-01-20T08:22:20.402Z,7.30
2019-01-20T08:24:50.466Z,9.95
2019-01-20T08:29:59.042Z,7.20
2019-01-20T08:37:42.076Z,7.70
2019-01-20T08:40:12.598Z,8.18
2019-01-20T08:42:40.501Z,7.28
2019-01-20T08:45:12.724Z,7.72
2019-01-20T08:47:45.154Z,7.50
2019-01-20T08:50:15.008Z,7.72
2019-01-20T08:52:42.966Z,7.97
2019-01-20T08:55:10.859Z,6.75
2019-01-20T08:57:39.140Z,6.75
2019-01-20T09:05:50.007Z,6.37
2019-01-20T09:11:25.394Z,7.40
2019-01-20T09:13:53.249Z,9.88
2019-01-20T09:16:21.147Z,8.18
2019-01-20T09:18:49.033Z,8.43
2019-01-20T09:21:16.901Z,6.85
2019-01-20T09:23:45.136Z,7.70
2019-01-20T09:26:13.117Z,6.75
2019-01-20T09:28:40.940Z,6.70
2019-01-20T09:31:08.806Z,8.60
2019-01-20T09:33:36.635Z,8.50
2019-01-20T09:36:04.584Z,7.92
2019-01-20T09:38:32.411Z,7.58
2019-01-20T09:41:00.237Z,7.12
2019-01-20T09:43:28.060Z,7.30
2019-01-20T09:48:30.819Z,8.40
2019-01-20T09:50:58.684Z,8.38
2019-01-20T09:53:26.545Z,7.53
2019-01-20T09:55:54.366Z,8.03
2019-01-20T09:58:22.235Z,8.45
2019-01-20T10:00:50.090Z,7.30
2019-01-20T10:03:17.999Z,8.43
2019-01-20T10:05:45.854Z,8.68
2019-01-20T10:08:13.722Z,9.23
2019-01-20T10:10:41.569Z,9.88
2019-01-20T10:13:09.421Z,9.70
2019-01-20T10:15:37.314Z,8.90
2019-01-20T10:18:05.177Z,9.98
2019-01-20T10:20:33.002Z,9.58
2019-01-20T10:23:00.910Z,9.15
2019-01-20T10:25:28.812Z,9.30
2019-01-20T10:27:56.645Z,10.48
2019-01-20T10:30:28.391Z,10.48
2019-01-20T10:32:56.315Z,8.18
2019-01-20T10:35:27.345Z,10.70
2019-01-20T10:40:34.646Z,9.65
2019-01-20T10:43:02.495Z,9.75
2019-01-20T10:45:30.478Z,9.23
2019-01-20T10:47:58.359Z,9.63
2019-01-20T10:50:26.242Z,9.40
2019-01-20T10:52:54.159Z,9.88
2019-01-20T10:55:22.024Z,9.90
2019-01-20T10:57:49.879Z,9.30
2019-01-20T11:03:13.322Z,10.28
2019-01-20T11:05:41.168Z,9.10
2019-01-20T11:08:09.050Z,10.23
2019-01-20T11:10:36.898Z,9.90
2019-01-20T11:13:04.734Z,9.93
2019-01-20T11:15:32.664Z,9.68
2019-01-20T11:18:00.518Z,8.50
2019-01-20T11:20:28.397Z,10.50
2019-01-20T11:22:56.270Z,9.80
2019-01-20T11:25:25.526Z,11.83
2019-01-20T11:27:53.354Z,8.85
2019-01-20T11:30:21.203Z,7.87
2019-01-20T11:32:49.151Z,7.50
2019-01-20T11:35:17.493Z,8.13
2019-01-20T11:37:45.346Z,7.75
2019-01-20T11:40:16.095Z,8.68
2019-01-20T11:42:43.942Z,7.30
2019-01-20T11:45:33.796Z,6.45
2019-01-20T11:48:01.601Z,6.83
2019-01-20T11:50:29.470Z,7.47
2019-01-20T11:52:57.374Z,7.05
2019-01-20T11:55:25.208Z,7.60
2019-01-20T11:57:53.035Z,7.42
2019-01-20T12:00:22.019Z,6.62
2019-01-20T12:02:49.874Z,7.72
2019-01-20T12:05:17.807Z,7.85
2019-01-20T12:07:45.665Z,6.72
2019-01-20T12:10:13.526Z,6.58
2019-01-20T12:12:41.834Z,6.90
2019-01-20T12:15:10.475Z,6.37
2019-01-20T12:17:38.321Z,7.17
2019-01-20T12:20:06.501Z,7.03
2019-01-20T12:22:34.548Z,6.90
2019-01-20T12:25:02.380Z,6.42
2019-01-20T12:27:30.246Z,6.90
2019-01-20T12:29:58.050Z,6.50
2019-01-20T12:32:25.898Z,7.42
2019-01-20T12:34:53.707Z,6.80
2019-01-20T12:37:21.535Z,6.55
2019-01-20T12:39:49.369Z,6.78
2019-01-20T12:42:17.194Z,6.17
2019-01-20T12:44:45.023Z,6.75
2019-01-20T12:47:12.890Z,6.53
2019-01-20T12:49:40.701Z,6.65
2019-01-20T12:52:08.543Z,7.83
2019-01-20T12:54:36.561Z,6.80
2019-01-20T12:57:04.398Z,7.15
2019-01-20T12:59:44.176Z,6.67
2019-01-20T13:02:01.838Z,6.80
2019-01-20T13:04:29.714Z,6.25
2019-01-20T13:06:57.571Z,6.72
2019-01-20T13:09:25.431Z,6.28
2019-01-20T13:11:53.243Z,5.72
2019-01-20T13:17:08.095Z,6.60
2019-01-20T13:19:35.926Z,6.10
2019-01-20T13:22:03.777Z,5.85
2019-01-20T13:24:31.600Z,6.45
2019-01-20T13:26:59.446Z,6.42
2019-01-20T13:29:49.349Z,5.95
2019-01-20T13:32:17.235Z,8.33
2019-01-20T13:34:45.138Z,6.08
2019-01-20T13:37:12.946Z,5.60
2019-01-20T13:39:41.079Z,7.05
2019-01-20T13:42:08.910Z,6.97
2019-01-20T13:44:36.761Z,5.60
2019-01-20T13:47:06.617Z,5.92
2019-01-20T13:49:34.478Z,5.55
2019-01-20T13:52:02.333Z,5.47
2019-01-20T13:54:30.142Z,6.85
2019-01-20T13:57:01.002Z,6.62
2019-01-20T13:59:28.851Z,6.30
2019-01-20T14:01:56.797Z,6.78
2019-01-20T14:04:24.609Z,5.58
2019-01-20T14:06:52.452Z,6.95
2019-01-20T14:09:20.291Z,5.25
2019-01-20T14:11:48.103Z,6.60
2019-01-20T14:14:15.905Z,5.15
2019-01-20T14:16:45.841Z,6.00
2019-01-20T14:19:21.690Z,6.15
2019-01-20T14:21:46.005Z,6.53
2019-01-20T14:24:13.801Z,7.15
2019-01-20T14:26:41.714Z,6.00
2019-01-20T14:29:09.514Z,6.83
2019-01-20T14:31:37.351Z,7.47
2019-01-20T14:34:05.174Z,6.62
2019-01-20T14:36:33.051Z,6.90
2019-01-20T14:41:49.562Z,6.87
2019-01-20T14:44:17.414Z,6.78
2019-01-20T14:46:45.610Z,7.33
2019-01-20T14:49:13.431Z,6.75
2019-01-20T14:51:41.301Z,6.30
2019-01-20T14:54:09.134Z,6.25
2019-01-20T14:59:28.045Z,6.60
2019-01-20T15:01:55.944Z,7.08
2019-01-20T15:04:23.790Z,6.40
2019-01-20T15:06:51.610Z,6.90
2019-01-20T15:09:19.444Z,7.10
2019-01-20T15:11:47.577Z,7.47
2019-01-20T15:14:15.429Z,6.50
2019-01-20T15:16:43.226Z,7.50
2019-01-20T15:19:11.054Z,8.95
2019-01-20T15:21:38.855Z,8.43
2019-01-20T15:24:06.702Z,7.58
2019-01-20T15:26:34.550Z,7.05
2019-01-20T15:29:02.407Z,6.90
2019-01-20T15:31:30.261Z,6.95
2019-01-20T15:33:58.117Z,8.30
2019-01-20T15:36:25.949Z,8.40
2019-01-20T15:38:53.781Z,7.62
2019-01-20T15:41:40.657Z,8.08
2019-01-20T15:44:08.514Z,7.65
2019-01-20T15:46:36.322Z,6.67
2019-01-20T15:49:04.257Z,6.65
2019-01-20T15:51:32.102Z,7.05
2019-01-20T15:53:59.957Z,6.30
2019-01-20T15:56:27.805Z,8.95
2019-01-20T15:58:55.642Z,7.37
2019-01-20T16:03:57.249Z,6.72
2019-01-20T16:06:25.056Z,6.67
2019-01-20T16:08:53.196Z,6.30
2019-01-20T16:11:21.032Z,6.47
2019-01-20T16:14:10.717Z,6.37
2019-01-20T16:16:38.648Z,4.80
2019-01-20T16:19:06.497Z,6.20
2019-01-20T16:21:34.336Z,6.17
2019-01-20T16:24:02.151Z,6.28
2019-01-20T16:26:30.028Z,6.78
2019-01-20T16:28:57.921Z,6.78
2019-01-20T16:31:25.801Z,6.00
2019-01-20T16:33:54.020Z,6.20
2019-01-20T16:36:21.901Z,6.40
2019-01-20T16:38:49.744Z,6.25
2019-01-20T16:41:17.638Z,6.40
2019-01-20T16:43:45.488Z,6.75
2019-01-20T16:46:13.506Z,6.72
2019-01-20T16:49:00.514Z,7.87
2019-01-20T16:51:28.526Z,9.43
2019-01-20T16:53:56.531Z,7.83
2019-01-20T16:56:24.357Z,8.73
2019-01-20T16:58:52.238Z,8.65
2019-01-20T17:01:20.159Z,8.55
2019-01-20T17:03:48.129Z,7.92
2019-01-20T17:06:16.024Z,7.65
2019-01-20T17:08:43.879Z,8.63
2019-01-20T17:11:11.833Z,9.18
2019-01-20T17:13:39.770Z,9.63
2019-01-20T17:16:07.633Z,9.13
2019-01-20T17:18:35.574Z,8.53
2019-01-20T17:21:03.467Z,9.60
2019-01-20T17:23:31.312Z,9.65
2019-01-20T17:26:18.263Z,9.90
2019-01-20T17:28:46.288Z,10.13
2019-01-20T17:31:14.306Z,9.88
2019-01-20T17:33:42.245Z,9.50
2019-01-20T17:36:10.160Z,9.20
2019-01-20T17:38:38.240Z,11.08
2019-01-20T17:41:06.194Z,10.50
2019-01-20T17:43:34.137Z,10.75
2019-01-20T17:46:01.992Z,10.63
2019-01-20T17:48:29.862Z,10.60
2019-01-20T17:51:00.247Z,10.63
2019-01-20T17:56:22.779Z,12.63
2019-01-20T17:58:50.707Z,14.87
2019-01-20T18:01:21.985Z,13.05
2019-01-20T18:04:09.106Z,12.18
2019-01-20T18:06:37.030Z,10.68
2019-01-20T18:11:55.545Z,12.43
2019-01-20T18:14:23.466Z,16.55
2019-01-20T18:16:51.387Z,9.65
2019-01-20T18:19:21.082Z,9.60
2019-01-20T18:22:08.134Z,9.80
2019-01-20T18:24:36.062Z,10.65
2019-01-20T18:27:04.190Z,9.20
2019-01-20T18:29:32.119Z,10.00
2019-01-20T18:32:00.113Z,11.08
2019-01-20T18:34:28.047Z,10.63
2019-01-20T18:36:56.001Z,10.60
2019-01-20T18:39:23.901Z,11.63
2019-01-20T18:41:51.945Z,10.85
2019-01-20T18:44:19.898Z,12.37
2019-01-20T18:46:47.883Z,12.58
2019-01-20T18:49:15.824Z,12.55
2019-01-20T18:51:43.841Z,10.82
2019-01-20T18:54:14.356Z,11.75
2019-01-20T18:56:42.329Z,12.15
2019-01-20T18:59:10.299Z,11.35
2019-01-20T19:01:38.353Z,11.75
2019-01-20T19:04:06.354Z,11.00
2019-01-20T19:11:48.348Z,11.60
2019-01-20T19:14:30.081Z,11.53
2019-01-20T19:16:46.021Z,12.47
2019-01-20T19:19:13.938Z,11.88
2019-01-20T19:21:41.895Z,12.60
2019-01-20T19:29:57.743Z,11.53
2019-01-20T19:32:26.101Z,12.73
2019-01-20T19:34:53.987Z,11.50
2019-01-20T19:37:22.526Z,10.98
2019-01-20T19:39:50.839Z,11.35
2019-01-20T19:42:20.411Z,10.53
2019-01-20T19:47:24.280Z,11.90
2019-01-20T19:58:07.633Z,12.18
2019-01-20T20:00:35.611Z,10.65
2019-01-20T20:03:22.653Z,11.95
2019-01-20T20:05:52.743Z,10.72
2019-01-20T20:08:20.725Z,15.50
2019-01-20T20:10:48.637Z,14.13
2019-01-20T20:13:16.610Z,14.07
2019-01-20T20:15:45.286Z,12.15
2019-01-20T20:18:15.423Z,13.53
2019-01-20T20:20:43.397Z,13.32
2019-01-20T20:23:32.016Z,12.10
2019-01-20T20:28:35.381Z,15.65
2019-01-20T20:31:22.438Z,13.30
2019-01-20T20:33:50.435Z,14.58
2019-01-20T20:44:49.726Z,13.45
2019-01-20T20:49:52.553Z,12.55
2019-01-20T20:55:15.435Z,10.43
2019-01-20T20:58:21.882Z,12.55
2019-01-20T21:00:51.368Z,11.75
2019-01-20T21:03:21.833Z,11.38
2019-01-20T21:06:09.210Z,11.30
2019-01-20T21:08:37.164Z,11.10
2019-01-20T21:11:05.178Z,11.30
2019-01-20T21:13:34.601Z,10.90
2019-01-20T21:16:03.496Z,14.25
2019-01-20T21:18:51.306Z,12.07
2019-01-20T21:21:39.056Z,11.12
2019-01-20T21:24:06.978Z,11.33
2019-01-20T21:26:34.905Z,11.65
2019-01-20T21:29:02.925Z,12.53
2019-01-20T21:31:30.866Z,12.45
2019-01-20T21:33:59.218Z,10.70
2019-01-20T21:36:47.068Z,12.25
2019-01-20T21:51:35.707Z,13.62
2019-01-20T22:03:08.189Z,17.00
2019-01-20T22:05:55.135Z,12.47
2019-01-20T22:08:23.450Z,13.40
2019-01-20T22:11:14.612Z,12.37
2019-01-20T22:28:16.909Z,13.08
2019-01-20T22:30:45.391Z,12.88
2019-01-20T22:39:07.158Z,11.35
2019-01-20T22:41:37.850Z,12.58
2019-01-20T22:47:00.618Z,12.45
2019-01-20T22:52:36.436Z,11.55
2019-01-20T23:03:57.239Z,10.85
2019-01-20T23:06:28.867Z,12.23
2019-01-20T23:09:06.450Z,13.65
2019-01-20T23:17:11.030Z,11.70
2019-01-20T23:19:59.503Z,10.40
2019-01-20T23:25:41.296Z,10.90
2019-01-20T23:31:16.958Z,9.60
2019-01-20T23:33:48.833Z,12.35
2019-01-20T23:36:37.045Z,11.15
2019-01-20T23:39:06.971Z,11.55
2019-01-20T23:53:10.632Z,12.90
2019-01-20T23:55:39.960Z,10.50
